Time;durP1;ratioP1;P1;durP2;ratioP2;P2;SDS_P1;SDS_P2;PMS_P1;PMS_P2;Temp;Humidity;BMP_temperature;BMP_pressure;BME280_temperature;BME280_humidity;BME280_pressure;Samples;Min_cycle;Max_cycle;Signal;HPM_P1;HPM_P2
2022/12/05 00:03:49;;;;;;;6.55;4.07;;;9.80;89.90;;;;;;10826067;33;20341;-75
2022/12/05 00:09:51;;;;;;;5.22;3.60;;;9.80;89.90;;;;;;10825827;33;20046;-75
2022/12/05 00:15:53;;;;;;;3.95;2.60;;;9.80;89.90;;;;;;10825859;33;20035;-75
2022/12/05 00:21:56;;;;;;;3.42;2.12;;;9.80;89.80;;;;;;10825601;33;20046;-75
2022/12/05 00:27:58;;;;;;;5.37;3.25;;;9.70;89.80;;;;;;10825321;33;20377;-75
2022/12/05 00:34:02;;;;;;;5.18;2.95;;;9.70;89.80;;;;;;10825371;33;20023;-75
2022/12/05 00:40:05;;;;;;;4.37;3.47;;;9.70;89.90;;;;;;10825067;33;20042;-75
2022/12/05 00:46:34;;;;;;;9.33;5.30;;;9.70;89.80;;;;;;10825039;33;20051;-75
2022/12/05 00:52:36;;;;;;;6.43;4.60;;;9.70;89.90;;;;;;10824911;33;20066;-75
2022/12/05 00:58:39;;;;;;;6.30;4.57;;;9.70;90.00;;;;;;10824698;33;20024;-75
2022/12/05 01:04:50;;;;;;;9.02;5.72;;;9.70;90.00;;;;;;10824358;32;20020;-75
2022/12/05 01:10:54;;;;;;;7.43;4.60;;;9.70;90.00;;;;;;10824535;33;20377;-75
2022/12/05 01:16:56;;;;;;;6.35;3.65;;;9.80;89.90;;;;;;10820029;33;20037;-75
2022/12/05 01:22:58;;;;;;;6.82;3.85;;;9.70;90.00;;;;;;10823941;33;20062;-75
2022/12/05 01:29:00;;;;;;;5.72;3.95;;;9.70;90.00;;;;;;10841674;27;20039;-74
2022/12/05 01:35:02;;;;;;;6.68;4.95;;;9.70;89.60;;;;;;10860680;32;20321;-76
2022/12/05 01:41:07;;;;;;;9.48;5.70;;;9.60;89.70;;;;;;10860663;32;20020;-76
2022/12/05 01:47:10;;;;;;;6.75;4.55;;;9.70;89.90;;;;;;10860568;32;20385;-76
2022/12/05 01:53:13;;;;;;;6.85;4.53;;;9.70;89.90;;;;;;10859057;32;20397;-78
2022/12/05 01:59:17;;;;;;;5.65;3.87;;;9.70;89.80;;;;;;10860074;32;20035;-77
2022/12/05 02:05:21;;;;;;;5.25;3.00;;;9.70;89.90;;;;;;10860081;32;20024;-77
2022/12/05 02:11:27;;;;;;;4.85;2.65;;;9.80;89.80;;;;;;10860117;32;20345;-77
2022/12/05 02:17:32;;;;;;;6.95;3.80;;;9.80;89.80;;;;;;10866322;32;20016;-77
2022/12/05 02:23:51;;;;;;;12.77;8.32;;;9.80;89.80;;;;;;10866073;32;20024;-77
2022/12/05 02:30:05;;;;;;;10.20;7.37;;;9.70;89.70;;;;;;10865910;32;20039;-77
2022/12/05 02:36:14;;;;;;;7.62;5.18;;;9.60;89.60;;;;;;10852545;32;20037;-77
2022/12/05 02:42:31;;;;;;;7.57;5.22;;;9.50;90.00;;;;;;10865409;32;20340;-77
2022/12/05 02:48:34;;;;;;;8.20;5.00;;;9.50;90.00;;;;;;10865457;32;20050;-77
2022/12/05 02:54:41;;;;;;;6.03;4.10;;;9.50;90.20;;;;;;10865145;32;20028;-77
2022/12/05 03:00:46;;;;;;;10.98;8.65;;;9.60;90.20;;;;;;10865022;32;20271;-77
2022/12/05 03:07:02;;;;;;;6.37;4.18;;;9.60;90.00;;;;;;10864785;32;20028;-77
2022/12/05 03:13:17;;;;;;;6.32;3.85;;;9.60;90.10;;;;;;10864683;32;20363;-77
2022/12/05 03:19:39;;;;;;;7.32;4.93;;;9.60;90.20;;;;;;10864452;32;20032;-77
2022/12/05 03:25:58;;;;;;;7.22;5.00;;;9.70;90.10;;;;;;10863401;32;20020;-76
2022/12/05 03:32:15;;;;;;;7.18;3.90;;;9.70;90.20;;;;;;10850883;32;20023;-76
2022/12/05 03:38:25;;;;;;;8.43;5.90;;;9.60;90.20;;;;;;10861379;32;20452;-76
2022/12/05 03:44:36;;;;;;;7.18;4.18;;;9.60;90.30;;;;;;10863809;32;20024;-77
2022/12/05 03:50:41;;;;;;;9.38;5.87;;;9.60;90.30;;;;;;10863677;32;20046;-77
2022/12/05 03:56:59;;;;;;;10.77;7.72;;;9.50;90.30;;;;;;10863595;32;20016;-76
2022/12/05 04:03:43;;;;;;;5.87;3.85;;;9.50;90.50;;;;;;10861522;32;20439;-77
2022/12/05 04:09:55;;;;;;;6.03;3.70;;;9.60;90.50;;;;;;10863073;32;20024;-77
2022/12/05 04:22:36;;;;;;;8.88;5.12;;;9.70;90.30;;;;;;10859819;32;20028;-77
2022/12/05 04:29:04;;;;;;;6.45;3.37;;;9.70;90.30;;;;;;10858207;32;20023;-77
2022/12/05 04:35:24;;;;;;;5.45;3.33;;;9.70;90.50;;;;;;10901547;32;20042;-77
2022/12/05 04:41:41;;;;;;;5.55;4.05;;;9.70;90.40;;;;;;10887661;32;20047;-77
2022/12/05 04:47:49;;;;;;;10.98;7.70;;;9.70;90.40;;;;;;10898813;32;20019;-77
2022/12/05 04:54:00;;;;;;;8.95;5.70;;;9.70;90.30;;;;;;10886833;32;20421;-77
2022/12/05 05:00:04;;;;;;;5.95;3.83;;;9.70;90.60;;;;;;10900118;32;20023;-76
2022/12/05 05:06:07;;;;;;;6.75;3.72;;;9.70;90.80;;;;;;10899624;32;20023;-77
2022/12/05 05:12:10;;;;;;;7.43;5.32;;;9.70;90.70;;;;;;10870135;32;20031;-77
2022/12/05 05:18:12;;;;;;;6.05;3.50;;;9.70;90.60;;;;;;10861246;32;20027;-77
2022/12/05 05:24:14;;;;;;;5.35;3.60;;;9.70;90.60;;;;;;10861103;32;20054;-77
2022/12/05 05:30:18;;;;;;;4.95;2.95;;;9.80;90.60;;;;;;10861152;32;20032;-77
2022/12/05 05:36:23;;;;;;;8.05;3.50;;;9.80;90.50;;;;;;10860797;32;20024;-77
2022/12/05 05:42:28;;;;;;;4.10;2.30;;;9.90;90.50;;;;;;10847888;32;20055;-77
2022/12/05 05:48:30;;;;;;;8.02;4.95;;;9.90;90.40;;;;;;10862902;32;20012;-77
2022/12/05 05:54:32;;;;;;;6.45;4.57;;;10.10;90.60;;;;;;10853741;32;20051;-76
2022/12/05 06:00:34;;;;;;;5.82;3.42;;;10.10;90.60;;;;;;10866747;32;20027;-76
2022/12/05 06:06:36;;;;;;;4.25;2.30;;;10.20;90.90;;;;;;10866642;32;20057;-76
2022/12/05 06:12:38;;;;;;;8.95;4.40;;;10.30;90.50;;;;;;10866408;32;20051;-77
2022/12/05 06:18:42;;;;;;;8.95;3.42;;;10.40;90.70;;;;;;10865731;32;20055;-77
2022/12/05 06:24:44;;;;;;;8.32;4.00;;;10.70;90.50;;;;;;10881878;32;20336;-76
2022/12/05 06:30:46;;;;;;;5.90;3.53;;;10.90;90.20;;;;;;10903198;32;20023;-76
2022/12/05 06:36:48;;;;;;;9.90;5.37;;;11.10;90.00;;;;;;10903020;32;20043;-76
2022/12/05 06:42:50;;;;;;;6.62;4.07;;;11.20;90.10;;;;;;10902724;32;20400;-76
2022/12/05 06:48:54;;;;;;;8.82;5.22;;;11.30;90.00;;;;;;10902459;32;20046;-76
2022/12/05 06:54:56;;;;;;;10.55;4.45;;;11.40;89.80;;;;;;10902587;32;20023;-76
2022/12/05 07:07:19;;;;;;;8.48;3.75;;;11.60;89.60;;;;;;10829453;32;20396;-75
2022/12/05 07:13:21;;;;;;;4.15;2.72;;;11.60;89.40;;;;;;10826828;32;20338;-75
2022/12/05 07:19:23;;;;;;;7.20;4.72;;;11.50;89.40;;;;;;10846065;32;20057;-75
2022/12/05 07:25:25;;;;;;;6.32;4.35;;;11.20;89.90;;;;;;10861296;32;20024;-75
2022/12/05 07:31:28;;;;;;;7.35;4.12;;;11.30;90.10;;;;;;10861917;32;20028;-75
2022/12/05 07:37:30;;;;;;;7.37;4.43;;;11.50;90.10;;;;;;10861516;32;20323;-75
2022/12/05 07:43:43;;;;;;;4.57;2.60;;;11.70;89.90;;;;;;10861487;32;20426;-75
2022/12/05 07:49:45;;;;;;;10.85;4.32;;;11.80;89.70;;;;;;10863432;32;20042;-72
2022/12/05 07:56:15;;;;;;;6.47;3.25;;;11.80;89.80;;;;;;10863286;32;20046;-72
2022/12/05 08:02:18;;;;;;;12.65;3.05;;;11.90;89.80;;;;;;10849089;32;20028;-72
2022/12/05 08:08:37;;;;;;;4.95;3.45;;;12.00;89.80;;;;;;10860653;32;20035;-72
2022/12/05 08:14:39;;;;;;;4.43;2.87;;;12.20;89.70;;;;;;10862344;32;20051;-73
2022/12/05 08:20:41;;;;;;;8.15;3.72;;;12.20;89.50;;;;;;10862530;32;20054;-72
2022/12/05 08:26:43;;;;;;;5.40;3.80;;;12.40;89.50;;;;;;10862494;32;20047;-73
2022/12/05 08:32:45;;;;;;;5.35;3.65;;;12.50;89.10;;;;;;10862218;32;20024;-72
2022/12/05 08:38:47;;;;;;;4.95;2.92;;;12.60;89.00;;;;;;10849280;32;20427;-72
2022/12/05 08:44:51;;;;;;;4.37;3.30;;;12.40;88.90;;;;;;10862170;32;20389;-72
2022/12/05 08:50:53;;;;;;;7.15;4.28;;;12.50;89.60;;;;;;10861748;32;20035;-72
2022/12/05 08:57:00;;;;;;;3.65;2.58;;;12.70;89.20;;;;;;10856796;32;20486;-72
2022/12/05 09:03:03;;;;;;;5.25;3.25;;;12.80;89.20;;;;;;10827304;32;20020;-73
2022/12/05 09:16:20;;;;;;;8.45;5.32;;;13.00;89.20;;;;;;10923213;32;20090;-72
2022/12/05 09:22:22;;;;;;;4.40;3.08;;;13.10;88.90;;;;;;10934842;32;20117;-72
2022/12/05 09:28:24;;;;;;;4.82;3.50;;;13.00;89.20;;;;;;10966894;27;20060;-72
2022/12/05 09:34:26;;;;;;;3.72;2.55;;;13.00;89.30;;;;;;11018560;32;20030;-72
2022/12/05 09:40:29;;;;;;;5.10;2.95;;;13.10;89.50;;;;;;11021427;32;20353;-73
2022/12/05 09:46:54;;;;;;;3.17;2.87;;;13.30;89.20;;;;;;11020212;32;20026;-72
2022/12/05 09:53:09;;;;;;;5.68;3.42;;;13.70;88.50;;;;;;11016464;32;20033;-73
2022/12/05 09:59:15;;;;;;;4.53;2.62;;;13.70;88.40;;;;;;11019454;32;20045;-72
2022/12/05 10:05:27;;;;;;;3.58;2.30;;;13.40;89.20;;;;;;11019432;32;20018;-72
2022/12/05 10:11:42;;;;;;;3.95;2.95;;;13.60;89.30;;;;;;11017950;32;20062;-72
2022/12/05 10:18:01;;;;;;;2.87;1.70;;;13.80;88.90;;;;;;11015403;32;20056;-72
2022/12/05 10:24:14;;;;;;;6.40;4.28;;;13.80;89.10;;;;;;11016745;32;20094;-72
2022/12/05 10:30:23;;;;;;;3.40;2.12;;;13.90;88.70;;;;;;10946341;32;20055;-72
2022/12/05 10:36:25;;;;;;;5.35;2.42;;;13.80;89.00;;;;;;10950685;32;20046;-72
2022/12/05 10:42:34;;;;;;;3.00;2.00;;;13.80;88.60;;;;;;10898543;32;20031;-72
2022/12/05 10:48:39;;;;;;;2.80;2.25;;;13.70;89.00;;;;;;10954275;32;20034;-73
2022/12/05 10:55:08;;;;;;;6.95;3.22;;;13.70;89.10;;;;;;10900206;32;20393;-72
2022/12/05 11:01:14;;;;;;;11.90;2.78;;;13.70;88.90;;;;;;10899161;32;20028;-72
2022/12/05 11:07:38;;;;;;;3.85;2.97;;;13.50;89.40;;;;;;10898138;32;20028;-72
2022/12/05 11:13:58;;;;;;;3.87;2.30;;;13.40;89.80;;;;;;10897793;32;20031;-72
2022/12/05 11:20:04;;;;;;;5.12;3.60;;;13.50;89.90;;;;;;10898643;32;20032;-72
2022/12/05 11:26:41;;;;;;;5.10;3.55;;;13.70;89.60;;;;;;10901712;32;20046;-72
2022/12/05 11:32:43;;;;;;;3.62;2.85;;;13.80;89.40;;;;;;10896689;32;20031;-72
2022/12/05 11:38:46;;;;;;;3.03;2.08;;;14.00;89.70;;;;;;10900750;32;20401;-73
2022/12/05 11:45:08;;;;;;;2.08;1.83;;;14.40;89.30;;;;;;10900233;32;20059;-72
2022/12/05 11:51:10;;;;;;;3.95;2.78;;;14.70;88.30;;;;;;10900887;32;20050;-73
2022/12/05 11:57:31;;;;;;;3.78;2.83;;;14.70;88.20;;;;;;10947738;32;20085;-72
2022/12/05 12:03:48;;;;;;;3.87;2.55;;;14.70;88.20;;;;;;10896121;32;20081;-74
2022/12/05 12:10:11;;;;;;;4.75;3.22;;;14.60;88.50;;;;;;10898941;32;20046;-74
2022/12/05 12:16:59;;;;;;;5.28;2.67;;;14.70;88.40;;;;;;10897333;32;20413;-75
2022/12/05 12:23:41;;;;;;;4.57;3.45;;;14.70;88.40;;;;;;10898616;32;20375;-75
2022/12/05 12:30:05;;;;;;;4.10;3.07;;;14.70;88.20;;;;;;10901374;32;20039;-75
2022/12/05 12:37:02;;;;;;;4.95;2.62;;;14.70;88.70;;;;;;10899300;32;20119;-75
2022/12/05 12:43:27;;;;;;;4.55;3.85;;;14.70;88.90;;;;;;10897494;32;20023;-76
2022/12/05 12:49:51;;;;;;;4.72;3.00;;;14.70;88.80;;;;;;10899763;32;20059;-75
2022/12/05 12:56:15;;;;;;;4.05;3.15;;;14.70;88.90;;;;;;10897784;32;20336;-75
2022/12/05 13:02:19;;;;;;;5.35;4.12;;;14.80;89.00;;;;;;10896110;32;20058;-75
2022/12/05 13:08:31;;;;;;;2.90;2.45;;;14.90;88.80;;;;;;10895530;32;20023;-75
2022/12/05 13:14:35;;;;;;;3.30;2.67;;;14.90;88.90;;;;;;10896453;32;20348;-75
2022/12/05 13:20:39;;;;;;;3.15;2.40;;;15.10;88.90;;;;;;10897158;32;20041;-75
2022/12/05 13:26:47;;;;;;;8.50;3.08;;;15.30;88.40;;;;;;10896452;32;20016;-75
2022/12/05 13:32:56;;;;;;;2.30;2.05;;;15.30;88.20;;;;;;10895752;32;20324;-75
2022/12/05 13:45:23;;;;;;;6.47;3.40;;;15.40;88.40;;;;;;10897060;32;20035;-75
2022/12/05 13:51:39;;;;;;;3.95;2.75;;;15.30;88.40;;;;;;10897915;32;20031;-76
2022/12/05 13:57:44;;;;;;;6.18;3.55;;;15.20;88.60;;;;;;10946783;32;20321;-75
2022/12/05 14:03:46;;;;;;;3.42;2.83;;;15.00;89.00;;;;;;10945633;32;20031;-75
2022/12/05 14:09:52;;;;;;;4.57;3.03;;;15.10;89.10;;;;;;10896296;32;20028;-75
2022/12/05 14:16:17;;;;;;;7.05;3.85;;;15.20;88.90;;;;;;10902859;32;20028;-75
2022/12/05 14:22:40;;;;;;;3.75;2.75;;;15.20;88.90;;;;;;10903555;32;20108;-75
2022/12/05 14:29:02;;;;;;;4.60;3.20;;;15.20;89.00;;;;;;10901703;32;20023;-75
2022/12/05 14:35:16;;;;;;;7.28;4.32;;;15.30;88.80;;;;;;10900307;32;20031;-76
2022/12/05 14:41:34;;;;;;;9.77;8.05;;;15.30;88.70;;;;;;10893985;32;20039;-75
2022/12/05 14:47:36;;;;;;;8.60;5.67;;;15.30;88.60;;;;;;10887177;32;20492;-75
2022/12/05 14:53:41;;;;;;;8.80;6.12;;;15.20;89.20;;;;;;10900933;32;20016;-75
2022/12/05 14:59:52;;;;;;;7.68;5.35;;;15.00;89.30;;;;;;10953940;32;20031;-75
2022/12/05 15:05:56;;;;;;;10.57;5.57;;;14.80;89.30;;;;;;10899329;32;20016;-75
2022/12/05 15:12:00;;;;;;;4.30;2.97;;;14.20;89.90;;;;;;10898269;32;20054;-76
2022/12/05 15:18:18;;;;;;;10.82;5.78;;;14.00;90.60;;;;;;10901057;32;20352;-76
2022/12/05 15:24:20;;;;;;;11.20;7.50;;;13.90;90.80;;;;;;10898820;32;20163;-77
2022/12/05 15:30:22;;;;;;;13.73;9.55;;;14.10;91.20;;;;;;10898966;32;20016;-77
2022/12/05 15:36:32;;;;;;;9.90;7.50;;;14.10;91.20;;;;;;10898528;32;20393;-77
2022/12/05 15:42:45;;;;;;;14.23;8.05;;;14.20;91.30;;;;;;10897233;32;20035;-76
2022/12/05 15:48:56;;;;;;;8.20;5.75;;;14.20;91.00;;;;;;10899840;32;20053;-76
2022/12/05 15:55:00;;;;;;;8.80;6.60;;;14.20;90.90;;;;;;10900767;32;20026;-76
2022/12/05 16:01:17;;;;;;;9.65;6.47;;;14.10;90.50;;;;;;10952103;32;20417;-76
2022/12/05 16:07:21;;;;;;;8.80;6.55;;;13.70;90.90;;;;;;10900449;32;20047;-76
2022/12/05 16:13:25;;;;;;;10.82;6.53;;;13.40;91.10;;;;;;10900422;32;20023;-76
2022/12/05 16:19:28;;;;;;;9.93;7.00;;;13.30;91.40;;;;;;10896873;32;20023;-77
2022/12/05 16:25:35;;;;;;;11.77;8.52;;;13.20;91.60;;;;;;10899390;32;20054;-77
2022/12/05 16:31:38;;;;;;;18.87;14.02;;;13.40;91.90;;;;;;10899488;32;20034;-77
2022/12/05 16:37:46;;;;;;;13.30;10.82;;;13.30;91.40;;;;;;10899747;32;20027;-77
2022/12/05 16:43:51;;;;;;;15.50;10.80;;;13.20;91.40;;;;;;10896126;32;20035;-76
2022/12/05 16:49:53;;;;;;;19.55;16.58;;;13.10;91.60;;;;;;10895650;32;20024;-76
2022/12/05 16:55:58;;;;;;;14.32;12.43;;;13.00;91.60;;;;;;10898230;32;20027;-76
2022/12/05 17:02:03;;;;;;;14.82;12.27;;;13.00;91.70;;;;;;10897673;32;20348;-76
2022/12/05 17:08:08;;;;;;;14.38;10.15;;;12.90;91.60;;;;;;10896634;32;20054;-76
2022/12/05 17:14:15;;;;;;;11.90;9.35;;;12.80;91.70;;;;;;10896141;32;20062;-76
2022/12/05 17:20:16;;;;;;;10.13;8.13;;;13.00;91.80;;;;;;10898632;32;20028;-76
2022/12/05 17:26:20;;;;;;;10.90;7.87;;;13.10;91.60;;;;;;10895111;32;20025;-75
2022/12/05 17:32:22;;;;;;;14.13;8.45;;;12.90;91.10;;;;;;10866280;27;20040;-75
2022/12/05 17:38:24;;;;;;;9.48;6.40;;;12.80;91.30;;;;;;10857125;32;20046;-75
2022/12/05 17:44:26;;;;;;;10.38;7.87;;;12.70;91.40;;;;;;10849107;32;20046;-75
2022/12/05 17:50:29;;;;;;;9.15;7.55;;;12.70;91.50;;;;;;10865788;32;20019;-75
2022/12/05 17:56:31;;;;;;;15.23;10.73;;;12.70;91.50;;;;;;10866772;32;20065;-75
2022/12/05 18:02:33;;;;;;;12.60;7.62;;;12.70;91.50;;;;;;10864970;32;20061;-75
2022/12/05 18:08:38;;;;;;;10.95;7.75;;;12.60;91.50;;;;;;10862995;32;20024;-73
2022/12/05 18:14:40;;;;;;;10.02;7.47;;;12.60;91.50;;;;;;10852823;32;20527;-73
2022/12/05 18:20:43;;;;;;;9.85;7.07;;;12.50;91.40;;;;;;10861941;32;20046;-73
2022/12/05 18:26:45;;;;;;;11.98;9.25;;;12.60;91.40;;;;;;10864979;32;20028;-73
2022/12/05 18:32:48;;;;;;;12.65;10.00;;;12.70;91.30;;;;;;10852483;32;20050;-73
2022/12/05 18:38:55;;;;;;;12.32;9.20;;;12.80;91.00;;;;;;10863296;32;20078;-73
2022/12/05 18:44:57;;;;;;;9.68;7.87;;;12.60;90.90;;;;;;10865316;32;20038;-73
2022/12/05 18:51:26;;;;;;;13.57;10.20;;;12.50;90.90;;;;;;10865206;32;20054;-73
2022/12/05 18:57:29;;;;;;;9.98;7.57;;;12.30;90.90;;;;;;10862085;32;20042;-73
2022/12/05 19:03:33;;;;;;;13.25;9.75;;;12.20;91.00;;;;;;10865099;32;20096;-73
2022/12/05 19:09:35;;;;;;;18.62;15.07;;;12.10;90.90;;;;;;10864875;32;20020;-73
2022/12/05 19:16:17;;;;;;;10.98;9.00;;;12.00;90.90;;;;;;10864619;32;20061;-73
2022/12/05 19:22:19;;;;;;;10.88;8.20;;;12.00;91.10;;;;;;10861960;32;20027;-73
2022/12/05 19:28:21;;;;;;;9.95;7.72;;;12.00;91.10;;;;;;10866017;32;20035;-73
2022/12/05 19:34:26;;;;;;;7.82;5.47;;;12.00;91.10;;;;;;10863155;32;20055;-73
2022/12/05 19:40:28;;;;;;;9.95;6.95;;;12.10;91.00;;;;;;10865524;32;20028;-73
2022/12/05 19:46:32;;;;;;;11.32;8.98;;;12.00;91.00;;;;;;10865246;32;20063;-73
2022/12/05 19:52:34;;;;;;;9.80;7.28;;;11.90;90.90;;;;;;10837667;32;20024;-73
2022/12/05 19:58:37;;;;;;;13.52;8.38;;;12.20;91.10;;;;;;10826440;33;20016;-73
2022/12/05 20:04:41;;;;;;;11.63;9.20;;;12.20;90.80;;;;;;10824883;33;20059;-73
2022/12/05 20:10:44;;;;;;;12.02;8.45;;;12.20;90.80;;;;;;10812207;33;20062;-73
2022/12/05 20:16:47;;;;;;;11.40;8.75;;;12.10;90.60;;;;;;10812810;33;20024;-73
2022/12/05 20:22:49;;;;;;;12.52;8.50;;;12.00;90.70;;;;;;10824649;33;20042;-73
2022/12/05 20:28:51;;;;;;;14.00;10.07;;;12.10;90.70;;;;;;10848819;32;20051;-73
2022/12/05 20:34:53;;;;;;;16.80;13.55;;;12.20;90.30;;;;;;10885614;32;20035;-73
2022/12/05 20:41:04;;;;;;;16.87;11.73;;;11.90;90.30;;;;;;10862189;32;20348;-73
2022/12/05 20:47:06;;;;;;;16.67;11.43;;;11.80;90.50;;;;;;10861995;32;20019;-73
2022/12/05 20:53:08;;;;;;;12.13;8.75;;;11.70;90.50;;;;;;10861906;32;20325;-73
2022/12/05 20:59:12;;;;;;;10.73;6.35;;;11.70;90.50;;;;;;10861815;32;20055;-73
2022/12/05 21:05:15;;;;;;;13.55;8.65;;;11.60;90.60;;;;;;10861382;32;20050;-73
2022/12/05 21:11:17;;;;;;;8.65;5.93;;;11.60;90.60;;;;;;10861591;32;20015;-73
2022/12/05 21:17:21;;;;;;;12.82;9.82;;;11.60;90.50;;;;;;10859681;32;20024;-73
2022/12/05 21:23:23;;;;;;;12.55;8.45;;;11.50;90.50;;;;;;10861221;32;20024;-73
2022/12/05 21:29:25;;;;;;;14.23;10.07;;;11.70;90.40;;;;;;10861195;32;20416;-73
2022/12/05 21:35:27;;;;;;;11.18;8.15;;;11.90;90.40;;;;;;10847880;32;20019;-73
2022/12/05 21:41:29;;;;;;;17.12;11.50;;;11.90;90.30;;;;;;10860852;32;20054;-73
2022/12/05 21:47:31;;;;;;;9.55;6.55;;;11.90;90.10;;;;;;10860338;32;20023;-73
2022/12/05 21:53:34;;;;;;;10.85;6.75;;;11.90;89.90;;;;;;10860659;32;20303;-73
2022/12/05 21:59:36;;;;;;;11.85;7.45;;;11.80;89.80;;;;;;10860490;32;20389;-73
2022/12/05 22:05:38;;;;;;;9.27;6.00;;;11.60;89.90;;;;;;10860265;32;20393;-73
2022/12/05 22:11:40;;;;;;;8.75;6.20;;;11.50;89.70;;;;;;10846985;32;20047;-73
2022/12/05 22:17:42;;;;;;;11.55;8.30;;;11.30;89.60;;;;;;10831976;32;20042;-73
2022/12/05 22:23:45;;;;;;;8.80;5.80;;;11.20;89.60;;;;;;10822878;33;20012;-73
2022/12/05 22:29:48;;;;;;;12.27;8.27;;;11.10;89.60;;;;;;10824109;32;20028;-73
2022/12/05 22:36:00;;;;;;;10.65;6.75;;;11.20;89.80;;;;;;10828935;33;20043;-73
2022/12/05 22:42:02;;;;;;;8.18;5.28;;;11.20;89.80;;;;;;10828751;33;20372;-73
2022/12/05 22:48:04;;;;;;;11.80;6.97;;;11.20;89.70;;;;;;10527705;33;10003206;-73
2022/12/05 22:54:06;;;;;;;11.18;7.30;;;11.20;89.70;;;;;;10815403;33;20020;-73
2022/12/05 23:00:08;;;;;;;13.65;8.00;;;11.10;89.70;;;;;;10828332;33;20039;-73
2022/12/05 23:06:12;;;;;;;13.13;8.20;;;11.00;89.70;;;;;;10836485;32;20078;-73
2022/12/05 23:12:16;;;;;;;13.98;10.68;;;11.00;89.60;;;;;;10865032;32;20332;-73
2022/12/05 23:18:19;;;;;;;15.93;11.12;;;10.90;89.70;;;;;;10851545;32;20028;-73
2022/12/05 23:24:21;;;;;;;14.55;10.65;;;10.90;89.70;;;;;;10863576;32;20082;-73
2022/12/05 23:30:23;;;;;;;11.63;7.43;;;10.80;89.70;;;;;;10851319;32;20023;-73
2022/12/05 23:36:25;;;;;;;13.25;9.15;;;10.70;89.70;;;;;;10864285;32;20046;-73
2022/12/05 23:42:27;;;;;;;17.70;13.05;;;10.80;89.70;;;;;;10863134;32;20020;-73
2022/12/05 23:48:43;;;;;;;24.02;17.62;;;10.70;89.60;;;;;;10863954;32;20038;-73
2022/12/05 23:54:45;;;;;;;22.52;17.02;;;10.60;89.40;;;;;;10862469;32;20015;-72
